Main page
METAR-TAF:

METAR-TAF

Airports :

McMinn County Airport

Athens, Tennessee, United States

latitude: 35-23-50N, longitude: 084-33-45W, elevation: 859 ft

Current weather observation

The report was made 17 minutes ago, at 11:35 UTC
Calm wind
Temperature 28°F
Humidity 100%
Pressure 30.30 in. Hg
Visibility: 10 miles
Clear sky

METAR: KMMI 231135Z AUTO 00000KT 10SM CLR M02/M02 A3030 RMK A01

Time: 05:52 (11:52 UTC)


TAF: missing

Weather observations and forecasts of more than 4000 airports (METAR and TAF reports).

The available stations are represented by yellow and red dots on the map.

Hover mouse over dot to see the name of the station.

Then click to see weather observations and forecasts.

To change the map : click on the green buttons with a black cross to zoom in, on the green button with a dash to zoom out, or on the green arrows for adjacent maps.


METAR-TAF: